createdAt,value
2023-06-01T00:05:03.310Z,58.80
2023-06-01T00:10:11.832Z,59.47
2023-06-01T00:15:19.262Z,67.67
2023-06-01T00:20:30.076Z,60.78
2023-06-01T00:25:40.498Z,59.63
2023-06-01T00:30:47.894Z,57.70
2023-06-01T00:35:55.761Z,56.73
2023-06-01T00:41:03.431Z,57.10
2023-06-01T00:46:11.376Z,57.07
2023-06-01T00:51:18.713Z,57.80
2023-06-01T00:56:27.643Z,56.93
2023-06-01T01:01:38.630Z,56.97
2023-06-01T01:07:22.144Z,56.35
2023-06-01T01:12:47.234Z,55.77
2023-06-01T01:17:58.608Z,55.43
2023-06-01T01:23:39.263Z,55.60
2023-06-01T01:28:56.889Z,55.77
2023-06-01T01:34:06.492Z,57.80
2023-06-01T01:39:13.788Z,57.07
2023-06-01T01:44:21.543Z,56.33
2023-06-01T01:49:42.306Z,56.60
2023-06-01T01:54:54.173Z,56.47
2023-06-01T02:00:02.038Z,67.10
2023-06-01T02:05:11.938Z,56.23
2023-06-01T02:10:19.246Z,57.00
2023-06-01T02:15:27.971Z,54.93
2023-06-01T02:20:36.403Z,55.70
2023-06-01T02:25:43.770Z,55.97
2023-06-01T02:35:58.101Z,55.58
2023-06-01T02:41:05.008Z,54.90
2023-06-01T02:51:20.653Z,54.93
2023-06-01T02:56:28.566Z,56.15
2023-06-01T03:01:37.382Z,55.38
2023-06-01T03:06:44.811Z,55.47
2023-06-01T03:11:52.322Z,55.60
2023-06-01T03:17:00.056Z,56.40
2023-06-01T03:22:07.140Z,55.20
2023-06-01T03:27:15.620Z,55.10
2023-06-01T03:32:22.454Z,55.93
2023-06-01T03:37:32.851Z,55.52
2023-06-01T03:42:50.457Z,55.65
2023-06-01T03:47:57.785Z,55.37
2023-06-01T03:53:04.464Z,55.67
2023-06-01T03:58:12.233Z,55.83
2023-06-01T04:03:21.752Z,56.23
2023-06-01T04:08:29.599Z,56.30
2023-06-01T04:13:36.474Z,56.73
2023-06-01T04:18:45.593Z,57.07
2023-06-01T04:23:53.310Z,57.33
2023-06-01T04:29:02.182Z,58.50
2023-06-01T04:34:11.571Z,57.80
2023-06-01T04:39:19.041Z,58.40
2023-06-01T04:44:27.623Z,64.82
2023-06-01T04:54:41.851Z,59.35
2023-06-01T04:59:49.005Z,60.37
2023-06-01T05:04:56.420Z,58.43
2023-06-01T05:10:05.187Z,58.83
2023-06-01T05:15:13.072Z,58.83
2023-06-01T05:20:20.056Z,63.10
2023-06-01T05:25:29.089Z,62.58
2023-06-01T05:30:37.220Z,61.30
2023-06-01T05:35:44.166Z,61.20
2023-06-01T05:40:51.105Z,62.33
2023-06-01T05:45:57.919Z,65.07
2023-06-01T05:51:05.070Z,63.13
2023-06-01T05:56:13.805Z,72.47
2023-06-01T06:01:21.616Z,65.17
2023-06-01T06:06:29.375Z,66.67
2023-06-01T06:11:36.643Z,66.07
2023-06-01T06:16:45.560Z,68.72
2023-06-01T06:21:53.097Z,68.28
2023-06-01T06:27:02.164Z,66.17
2023-06-01T06:32:10.721Z,68.80
2023-06-01T06:37:17.988Z,66.30
2023-06-01T06:42:29.610Z,68.73
2023-06-01T06:47:36.661Z,68.07
2023-06-01T06:52:43.657Z,79.37
2023-06-01T06:57:50.770Z,67.47
2023-06-01T07:03:00.427Z,66.83
2023-06-01T07:08:07.562Z,70.63
2023-06-01T07:13:15.139Z,67.23
2023-06-01T07:18:23.113Z,65.80
2023-06-01T07:23:31.694Z,67.53
2023-06-01T07:28:39.310Z,67.67
2023-06-01T07:33:47.888Z,68.15
2023-06-01T07:38:55.202Z,67.20
2023-06-01T07:44:02.344Z,67.47
2023-06-01T07:49:11.473Z,73.40
2023-06-01T07:54:18.405Z,69.33
2023-06-01T07:59:26.251Z,72.17
2023-06-01T08:04:35.270Z,67.93
2023-06-01T08:09:44.158Z,69.10
2023-06-01T08:14:53.445Z,68.43
2023-06-01T08:20:00.251Z,69.23
2023-06-01T08:25:08.723Z,68.03
2023-06-01T08:30:15.897Z,70.47
2023-06-01T08:35:23.672Z,69.47
2023-06-01T08:40:31.995Z,70.73
2023-06-01T08:45:41.512Z,70.10
2023-06-01T08:50:52.374Z,70.57
2023-06-01T08:56:01.951Z,70.63
2023-06-01T09:01:09.599Z,70.63
2023-06-01T09:06:16.675Z,72.33
2023-06-01T09:11:25.323Z,70.30
2023-06-01T09:16:41.481Z,70.22
2023-06-01T09:22:01.847Z,70.20
2023-06-01T09:27:09.889Z,72.35
2023-06-01T09:32:22.765Z,74.65
2023-06-01T09:37:30.424Z,71.03
2023-06-01T09:42:38.604Z,75.52
2023-06-01T09:47:45.658Z,71.53
2023-06-01T09:53:03.334Z,72.23
2023-06-01T09:58:30.069Z,72.77
2023-06-01T10:03:38.049Z,72.50
2023-06-01T10:08:46.832Z,73.10
2023-06-01T10:13:54.272Z,72.80
2023-06-01T10:19:02.150Z,72.87
2023-06-01T10:24:11.164Z,72.57
2023-06-01T10:29:21.442Z,75.27
2023-06-01T10:34:47.250Z,72.87
2023-06-01T10:39:56.268Z,75.10
2023-06-01T10:45:05.160Z,73.63
2023-06-01T10:50:16.553Z,74.17
2023-06-01T10:55:27.556Z,75.80
2023-06-01T11:00:41.864Z,77.08
2023-06-01T11:05:53.771Z,76.75
2023-06-01T11:11:05.189Z,73.63
2023-06-01T11:16:26.209Z,76.53
2023-06-01T11:21:44.641Z,74.62
2023-06-01T11:26:53.695Z,76.60
2023-06-01T11:32:04.753Z,75.67
2023-06-01T11:37:21.165Z,74.95
2023-06-01T11:42:33.328Z,74.03
2023-06-01T11:47:40.861Z,73.72
2023-06-01T11:52:49.818Z,76.00
2023-06-01T11:57:59.572Z,74.60
2023-06-01T12:03:10.385Z,77.57
2023-06-01T12:08:22.193Z,73.93
2023-06-01T12:13:31.189Z,73.85
2023-06-01T12:18:38.157Z,73.80
2023-06-01T12:23:53.034Z,73.33
2023-06-01T12:29:01.473Z,78.90
2023-06-01T12:34:18.108Z,74.87
2023-06-01T12:39:38.456Z,79.35
2023-06-01T12:44:47.394Z,75.77
2023-06-01T12:50:12.791Z,75.55
2023-06-01T12:55:21.316Z,75.80
2023-06-01T13:00:39.446Z,73.37
2023-06-01T13:05:36.672Z,74.70
2023-06-01T13:10:44.817Z,74.60
2023-06-01T13:15:52.070Z,75.93
2023-06-01T13:20:59.532Z,74.50
2023-06-01T13:26:07.066Z,78.13
2023-06-01T13:31:14.831Z,75.08
2023-06-01T13:36:23.349Z,75.57
2023-06-01T13:41:32.119Z,78.33
2023-06-01T13:46:40.379Z,75.90
2023-06-01T13:51:47.961Z,75.70
2023-06-01T13:56:55.060Z,74.93
2023-06-01T14:02:02.063Z,78.55
2023-06-01T14:07:09.182Z,79.40
2023-06-01T14:12:16.706Z,74.77
2023-06-01T14:17:23.935Z,76.90
2023-06-01T14:22:30.446Z,73.80
2023-06-01T14:27:38.677Z,75.20
2023-06-01T14:32:46.650Z,74.40
2023-06-01T14:37:54.123Z,81.53
2023-06-01T14:43:02.341Z,74.37
2023-06-01T14:48:09.640Z,74.10
2023-06-01T14:53:17.335Z,76.07
2023-06-01T14:58:24.294Z,75.10
2023-06-01T15:03:31.225Z,76.13
2023-06-01T15:08:39.602Z,74.77
2023-06-01T15:13:46.202Z,77.70
2023-06-01T15:18:53.558Z,75.35
2023-06-01T15:24:00.959Z,76.80
2023-06-01T15:29:09.107Z,73.37
2023-06-01T15:34:16.847Z,75.93
2023-06-01T15:39:24.854Z,74.97
2023-06-01T15:44:31.868Z,73.77
2023-06-01T15:49:41.071Z,74.90
2023-06-01T15:54:48.996Z,74.20
2023-06-01T15:59:58.214Z,76.45
2023-06-01T16:05:05.500Z,77.17
2023-06-01T16:10:14.028Z,76.00
2023-06-01T16:15:21.306Z,76.00
2023-06-01T16:20:29.401Z,72.87
2023-06-01T16:25:36.453Z,72.55
2023-06-01T16:30:43.134Z,76.40
2023-06-01T16:35:50.142Z,72.10
2023-06-01T16:40:57.443Z,75.60
2023-06-01T16:46:04.849Z,73.27
2023-06-01T16:51:12.364Z,71.97
2023-06-01T16:56:19.639Z,75.20
2023-06-01T17:01:28.123Z,72.30
2023-06-01T17:06:35.668Z,72.25
2023-06-01T17:11:42.660Z,72.53
2023-06-01T17:16:50.925Z,72.40
2023-06-01T17:21:58.505Z,72.33
2023-06-01T17:27:06.981Z,70.40
2023-06-01T17:32:14.305Z,71.83
2023-06-01T17:37:22.406Z,70.75
2023-06-01T17:42:29.593Z,71.57
2023-06-01T17:47:36.880Z,70.60
2023-06-01T17:52:43.829Z,72.67
2023-06-01T17:57:53.730Z,72.78
2023-06-01T18:03:01.036Z,73.07
2023-06-01T18:08:08.690Z,71.00
2023-06-01T18:13:16.241Z,71.40
2023-06-01T18:18:23.355Z,71.85
2023-06-01T18:23:30.605Z,72.10
2023-06-01T18:28:38.342Z,75.27
2023-06-01T18:33:46.065Z,70.00
2023-06-01T18:38:53.641Z,69.83
2023-06-01T18:44:01.157Z,70.53
2023-06-01T18:49:09.069Z,68.50
2023-06-01T18:54:16.107Z,68.40
2023-06-01T18:59:23.775Z,69.25
2023-06-01T19:04:30.575Z,69.40
2023-06-01T19:09:44.266Z,71.82
2023-06-01T19:14:56.219Z,80.93
2023-06-01T19:20:05.308Z,79.37
2023-06-01T19:25:13.394Z,76.12
2023-06-01T19:30:22.859Z,79.70
2023-06-01T19:35:33.304Z,70.10
2023-06-01T19:40:48.983Z,79.53
2023-06-01T19:46:10.537Z,69.55
2023-06-01T19:51:20.898Z,65.20
2023-06-01T19:56:44.483Z,67.70
2023-06-01T20:01:54.477Z,66.47
2023-06-01T20:07:04.829Z,65.40
2023-06-01T20:12:16.332Z,68.03
2023-06-01T20:17:25.042Z,66.80
2023-06-01T20:22:33.432Z,64.47
2023-06-01T20:27:41.357Z,64.40
2023-06-01T20:32:50.180Z,64.20
2023-06-01T20:37:59.469Z,69.00
2023-06-01T20:43:08.773Z,64.57
2023-06-01T20:48:20.526Z,63.73
2023-06-01T20:53:29.674Z,63.54
2023-06-01T20:58:37.244Z,63.23
2023-06-01T21:03:44.040Z,60.83
2023-06-01T21:08:55.908Z,61.00
2023-06-01T21:14:03.190Z,65.37
2023-06-01T21:19:10.310Z,69.97
2023-06-01T21:24:29.354Z,65.85
2023-06-01T21:29:37.680Z,68.85
2023-06-01T21:34:44.503Z,66.00
2023-06-01T21:39:51.521Z,62.77
2023-06-01T21:45:01.722Z,59.80
2023-06-01T21:50:09.885Z,63.70
2023-06-01T21:55:18.089Z,62.93
2023-06-01T22:00:25.329Z,60.97
2023-06-01T22:05:34.273Z,60.80
2023-06-01T22:10:42.239Z,59.80
2023-06-01T22:15:49.214Z,64.47
2023-06-01T22:20:56.604Z,62.73
2023-06-01T22:26:04.733Z,64.27
2023-06-01T22:31:12.790Z,60.53
2023-06-01T22:36:19.252Z,62.53
2023-06-01T22:41:26.871Z,64.27
2023-06-01T22:46:34.071Z,60.40
2023-06-01T22:51:43.112Z,59.83
2023-06-01T22:56:50.487Z,59.37
2023-06-01T23:01:58.220Z,58.77
2023-06-01T23:07:09.740Z,58.57
2023-06-01T23:12:21.323Z,60.27
2023-06-01T23:17:29.969Z,58.30
2023-06-01T23:22:38.624Z,59.23
2023-06-01T23:27:46.398Z,58.97
2023-06-01T23:32:54.894Z,58.07
2023-06-01T23:38:02.295Z,58.10
2023-06-01T23:43:09.651Z,58.27
2023-06-01T23:48:17.413Z,57.77
2023-06-01T23:53:27.886Z,57.50
2023-06-01T23:58:35.858Z,58.90
